sensor_id;sensor_type;location;lat;lon;timestamp;temperature;humidity
39067;DHT22;24821;51.988;6.020;2023-04-03T00:01:03;5.00;99.90
39067;DHT22;24821;51.988;6.020;2023-04-03T00:03:29;4.90;99.90
39067;DHT22;24821;51.988;6.020;2023-04-03T00:05:54;4.90;99.90
39067;DHT22;24821;51.988;6.020;2023-04-03T00:08:21;4.90;99.90
39067;DHT22;24821;51.988;6.020;2023-04-03T00:10:46;4.90;99.90
39067;DHT22;24821;51.988;6.020;2023-04-03T00:13:12;4.90;99.90
39067;DHT22;24821;51.988;6.020;2023-04-03T00:15:38;4.90;99.90
39067;DHT22;24821;51.988;6.020;2023-04-03T00:18:05;4.90;99.90
39067;DHT22;24821;51.988;6.020;2023-04-03T00:20:31;4.80;99.90
39067;DHT22;24821;51.988;6.020;2023-04-03T00:22:57;4.80;99.90
39067;DHT22;24821;51.988;6.020;2023-04-03T00:25:22;4.80;99.90
39067;DHT22;24821;51.988;6.020;2023-04-03T00:27:48;4.80;99.90
39067;DHT22;24821;51.988;6.020;2023-04-03T00:30:16;4.70;99.90
39067;DHT22;24821;51.988;6.020;2023-04-03T00:32:42;4.70;99.90
39067;DHT22;24821;51.988;6.020;2023-04-03T00:35:09;4.70;99.90
39067;DHT22;24821;51.988;6.020;2023-04-03T00:37:35;4.70;99.90
39067;DHT22;24821;51.988;6.020;2023-04-03T00:40:01;4.70;99.90
39067;DHT22;24821;51.988;6.020;2023-04-03T00:42:26;4.70;99.90
39067;DHT22;24821;51.988;6.020;2023-04-03T00:47:21;4.60;99.90
39067;DHT22;24821;51.988;6.020;2023-04-03T00:49:47;4.60;99.90
39067;DHT22;24821;51.988;6.020;2023-04-03T00:52:16;4.60;99.90
39067;DHT22;24821;51.988;6.020;2023-04-03T00:54:44;4.60;99.90
39067;DHT22;24821;51.988;6.020;2023-04-03T00:57:11;4.50;99.90
39067;DHT22;24821;51.988;6.020;2023-04-03T00:59:44;4.50;99.90
39067;DHT22;24821;51.988;6.020;2023-04-03T01:02:11;4.50;99.90
39067;DHT22;24821;51.988;6.020;2023-04-03T01:04:39;4.40;99.90
39067;DHT22;24821;51.988;6.020;2023-04-03T01:07:11;4.40;99.90
39067;DHT22;24821;51.988;6.020;2023-04-03T01:09:38;4.40;99.90
39067;DHT22;24821;51.988;6.020;2023-04-03T01:14:54;4.40;99.90
39067;DHT22;24821;51.988;6.020;2023-04-03T01:17:28;4.30;99.90
39067;DHT22;24821;51.988;6.020;2023-04-03T01:25:36;4.30;99.90
39067;DHT22;24821;51.988;6.020;2023-04-03T01:28:06;4.30;99.90
39067;DHT22;24821;51.988;6.020;2023-04-03T01:30:36;4.30;99.90
39067;DHT22;24821;51.988;6.020;2023-04-03T01:33:03;4.20;99.90
39067;DHT22;24821;51.988;6.020;2023-04-03T01:35:29;4.20;99.90
39067;DHT22;24821;51.988;6.020;2023-04-03T01:37:54;4.20;99.90
39067;DHT22;24821;51.988;6.020;2023-04-03T01:40:20;4.20;99.90
39067;DHT22;24821;51.988;6.020;2023-04-03T01:42:46;4.20;99.90
39067;DHT22;24821;51.988;6.020;2023-04-03T01:45:11;4.20;99.90
39067;DHT22;24821;51.988;6.020;2023-04-03T01:47:37;4.20;99.90
39067;DHT22;24821;51.988;6.020;2023-04-03T01:50:02;4.20;99.90
39067;DHT22;24821;51.988;6.020;2023-04-03T01:52:28;4.20;99.90
39067;DHT22;24821;51.988;6.020;2023-04-03T01:54:55;4.20;99.90
39067;DHT22;24821;51.988;6.020;2023-04-03T01:57:20;4.10;99.90
39067;DHT22;24821;51.988;6.020;2023-04-03T01:59:46;4.10;99.90
39067;DHT22;24821;51.988;6.020;2023-04-03T02:02:12;4.10;99.90
39067;DHT22;24821;51.988;6.020;2023-04-03T02:04:40;4.10;99.90
39067;DHT22;24821;51.988;6.020;2023-04-03T02:07:05;4.10;99.90
39067;DHT22;24821;51.988;6.020;2023-04-03T02:09:31;4.00;99.90
39067;DHT22;24821;51.988;6.020;2023-04-03T02:11:56;4.00;99.90
39067;DHT22;24821;51.988;6.020;2023-04-03T02:14:22;4.10;99.90
39067;DHT22;24821;51.988;6.020;2023-04-03T02:16:49;4.00;99.90
39067;DHT22;24821;51.988;6.020;2023-04-03T02:19:15;4.00;99.90
39067;DHT22;24821;51.988;6.020;2023-04-03T02:21:41;4.00;99.90
39067;DHT22;24821;51.988;6.020;2023-04-03T02:24:07;4.00;99.90
39067;DHT22;24821;51.988;6.020;2023-04-03T02:26:32;4.00;99.90
39067;DHT22;24821;51.988;6.020;2023-04-03T02:28:58;4.00;99.90
39067;DHT22;24821;51.988;6.020;2023-04-03T02:31:23;3.90;99.90
39067;DHT22;24821;51.988;6.020;2023-04-03T02:33:49;4.00;99.90
39067;DHT22;24821;51.988;6.020;2023-04-03T02:36:15;3.90;99.90
39067;DHT22;24821;51.988;6.020;2023-04-03T02:38:41;3.90;99.90
39067;DHT22;24821;51.988;6.020;2023-04-03T02:41:09;3.90;99.90
39067;DHT22;24821;51.988;6.020;2023-04-03T02:43:36;3.90;99.90
39067;DHT22;24821;51.988;6.020;2023-04-03T02:46:02;3.80;99.90
39067;DHT22;24821;51.988;6.020;2023-04-03T02:48:27;3.90;99.90
39067;DHT22;24821;51.988;6.020;2023-04-03T02:50:53;3.80;99.90
39067;DHT22;24821;51.988;6.020;2023-04-03T02:53:19;3.80;99.90
39067;DHT22;24821;51.988;6.020;2023-04-03T02:55:45;3.70;99.90
39067;DHT22;24821;51.988;6.020;2023-04-03T02:58:11;3.80;99.90
39067;DHT22;24821;51.988;6.020;2023-04-03T03:00:37;3.80;99.90
39067;DHT22;24821;51.988;6.020;2023-04-03T03:03:03;3.80;99.90
39067;DHT22;24821;51.988;6.020;2023-04-03T03:05:29;3.70;99.90
39067;DHT22;24821;51.988;6.020;2023-04-03T03:07:55;3.80;99.90
39067;DHT22;24821;51.988;6.020;2023-04-03T03:10:22;3.70;99.90
39067;DHT22;24821;51.988;6.020;2023-04-03T03:12:48;3.70;99.90
39067;DHT22;24821;51.988;6.020;2023-04-03T03:15:13;3.70;99.90
39067;DHT22;24821;51.988;6.020;2023-04-03T03:17:40;3.70;99.90
39067;DHT22;24821;51.988;6.020;2023-04-03T03:20:06;3.60;99.90
39067;DHT22;24821;51.988;6.020;2023-04-03T03:22:33;3.60;99.90
39067;DHT22;24821;51.988;6.020;2023-04-03T03:24:58;3.60;99.90
39067;DHT22;24821;51.988;6.020;2023-04-03T03:27:24;3.60;99.90
39067;DHT22;24821;51.988;6.020;2023-04-03T03:29:50;3.60;99.90
39067;DHT22;24821;51.988;6.020;2023-04-03T03:32:15;3.60;99.90
39067;DHT22;24821;51.988;6.020;2023-04-03T03:34:41;3.60;99.90
39067;DHT22;24821;51.988;6.020;2023-04-03T03:37:07;3.50;99.90
39067;DHT22;24821;51.988;6.020;2023-04-03T03:39:32;3.50;99.90
39067;DHT22;24821;51.988;6.020;2023-04-03T03:41:58;3.50;99.90
39067;DHT22;24821;51.988;6.020;2023-04-03T03:44:23;3.50;99.90
39067;DHT22;24821;51.988;6.020;2023-04-03T03:46:49;3.50;99.90
39067;DHT22;24821;51.988;6.020;2023-04-03T03:49:15;3.40;99.90
39067;DHT22;24821;51.988;6.020;2023-04-03T03:51:40;3.40;99.90
39067;DHT22;24821;51.988;6.020;2023-04-03T03:54:07;3.40;99.90
39067;DHT22;24821;51.988;6.020;2023-04-03T03:56:33;3.30;99.90
39067;DHT22;24821;51.988;6.020;2023-04-03T03:58:58;3.40;99.90
39067;DHT22;24821;51.988;6.020;2023-04-03T04:01:24;3.30;99.90
39067;DHT22;24821;51.988;6.020;2023-04-03T04:03:50;3.30;99.90
39067;DHT22;24821;51.988;6.020;2023-04-03T04:06:16;3.30;99.90
39067;DHT22;24821;51.988;6.020;2023-04-03T04:08:42;3.30;99.90
39067;DHT22;24821;51.988;6.020;2023-04-03T04:11:08;3.30;99.90
39067;DHT22;24821;51.988;6.020;2023-04-03T04:13:34;3.20;99.90
39067;DHT22;24821;51.988;6.020;2023-04-03T04:16:00;3.20;99.90
39067;DHT22;24821;51.988;6.020;2023-04-03T04:18:25;3.20;99.90
39067;DHT22;24821;51.988;6.020;2023-04-03T04:20:51;3.20;99.90
39067;DHT22;24821;51.988;6.020;2023-04-03T04:23:17;3.20;99.90
39067;DHT22;24821;51.988;6.020;2023-04-03T04:25:47;3.20;99.90
39067;DHT22;24821;51.988;6.020;2023-04-03T04:28:13;3.20;99.90
39067;DHT22;24821;51.988;6.020;2023-04-03T04:30:39;3.10;99.90
39067;DHT22;24821;51.988;6.020;2023-04-03T04:33:04;3.10;99.90
39067;DHT22;24821;51.988;6.020;2023-04-03T04:35:30;3.10;99.90
39067;DHT22;24821;51.988;6.020;2023-04-03T04:37:56;3.10;99.90
39067;DHT22;24821;51.988;6.020;2023-04-03T04:40:22;3.10;99.90
39067;DHT22;24821;51.988;6.020;2023-04-03T04:42:47;3.00;99.90
39067;DHT22;24821;51.988;6.020;2023-04-03T04:45:13;3.00;99.90
39067;DHT22;24821;51.988;6.020;2023-04-03T04:47:40;3.00;99.90
39067;DHT22;24821;51.988;6.020;2023-04-03T04:50:06;2.90;99.90
39067;DHT22;24821;51.988;6.020;2023-04-03T04:52:32;2.90;99.90
39067;DHT22;24821;51.988;6.020;2023-04-03T04:54:57;2.90;99.90
39067;DHT22;24821;51.988;6.020;2023-04-03T04:57:23;2.90;99.90
39067;DHT22;24821;51.988;6.020;2023-04-03T04:59:48;2.90;99.90
39067;DHT22;24821;51.988;6.020;2023-04-03T05:02:14;2.90;99.90
39067;DHT22;24821;51.988;6.020;2023-04-03T05:04:39;2.90;99.90
39067;DHT22;24821;51.988;6.020;2023-04-03T05:07:05;2.80;99.90
39067;DHT22;24821;51.988;6.020;2023-04-03T05:09:30;2.80;99.90
39067;DHT22;24821;51.988;6.020;2023-04-03T05:11:56;2.80;99.90
39067;DHT22;24821;51.988;6.020;2023-04-03T05:14:22;2.80;99.90
39067;DHT22;24821;51.988;6.020;2023-04-03T05:16:47;2.80;99.90
39067;DHT22;24821;51.988;6.020;2023-04-03T05:19:13;2.70;99.90
39067;DHT22;24821;51.988;6.020;2023-04-03T05:21:39;2.80;99.90
39067;DHT22;24821;51.988;6.020;2023-04-03T05:24:05;2.70;99.90
39067;DHT22;24821;51.988;6.020;2023-04-03T05:26:34;2.70;99.90
39067;DHT22;24821;51.988;6.020;2023-04-03T05:29:00;2.70;99.90
39067;DHT22;24821;51.988;6.020;2023-04-03T05:31:25;2.70;99.90
39067;DHT22;24821;51.988;6.020;2023-04-03T05:33:54;2.70;99.90
39067;DHT22;24821;51.988;6.020;2023-04-03T05:36:20;2.70;99.90
39067;DHT22;24821;51.988;6.020;2023-04-03T05:38:46;2.70;99.90
39067;DHT22;24821;51.988;6.020;2023-04-03T05:41:12;2.80;99.90
39067;DHT22;24821;51.988;6.020;2023-04-03T05:43:37;2.80;99.90
39067;DHT22;24821;51.988;6.020;2023-04-03T05:46:08;2.80;99.90
39067;DHT22;24821;51.988;6.020;2023-04-03T05:48:33;2.80;99.90
39067;DHT22;24821;51.988;6.020;2023-04-03T05:50:59;2.80;99.90
39067;DHT22;24821;51.988;6.020;2023-04-03T05:53:27;2.80;99.90
39067;DHT22;24821;51.988;6.020;2023-04-03T05:55:53;2.80;99.90
39067;DHT22;24821;51.988;6.020;2023-04-03T05:58:19;2.80;99.90
39067;DHT22;24821;51.988;6.020;2023-04-03T06:00:44;2.80;99.90
39067;DHT22;24821;51.988;6.020;2023-04-03T06:03:11;2.80;99.90
39067;DHT22;24821;51.988;6.020;2023-04-03T06:05:37;2.80;99.90
39067;DHT22;24821;51.988;6.020;2023-04-03T06:08:02;2.90;99.90
39067;DHT22;24821;51.988;6.020;2023-04-03T06:10:28;2.90;99.90
39067;DHT22;24821;51.988;6.020;2023-04-03T06:12:54;2.90;99.90
39067;DHT22;24821;51.988;6.020;2023-04-03T06:15:20;2.90;99.90
39067;DHT22;24821;51.988;6.020;2023-04-03T06:17:46;2.90;99.90
39067;DHT22;24821;51.988;6.020;2023-04-03T06:20:12;2.90;99.90
39067;DHT22;24821;51.988;6.020;2023-04-03T06:22:37;2.90;99.90
39067;DHT22;24821;51.988;6.020;2023-04-03T06:25:03;3.00;99.90
39067;DHT22;24821;51.988;6.020;2023-04-03T06:27:30;3.00;99.90
39067;DHT22;24821;51.988;6.020;2023-04-03T06:29:55;3.00;99.90
39067;DHT22;24821;51.988;6.020;2023-04-03T06:32:21;3.10;99.90
39067;DHT22;24821;51.988;6.020;2023-04-03T06:34:47;3.10;99.90
39067;DHT22;24821;51.988;6.020;2023-04-03T06:37:16;3.10;99.90
39067;DHT22;24821;51.988;6.020;2023-04-03T06:39:42;3.20;99.90
39067;DHT22;24821;51.988;6.020;2023-04-03T06:42:08;3.20;99.90
39067;DHT22;24821;51.988;6.020;2023-04-03T06:44:34;3.20;99.90
39067;DHT22;24821;51.988;6.020;2023-04-03T06:47:00;3.20;99.90
39067;DHT22;24821;51.988;6.020;2023-04-03T06:49:26;3.30;99.90
39067;DHT22;24821;51.988;6.020;2023-04-03T06:51:51;3.30;99.90
39067;DHT22;24821;51.988;6.020;2023-04-03T06:54:17;3.30;99.90
39067;DHT22;24821;51.988;6.020;2023-04-03T06:56:43;3.40;99.90
39067;DHT22;24821;51.988;6.020;2023-04-03T06:59:09;3.40;99.90
39067;DHT22;24821;51.988;6.020;2023-04-03T07:01:35;3.40;99.90
39067;DHT22;24821;51.988;6.020;2023-04-03T07:04:01;3.50;99.90
39067;DHT22;24821;51.988;6.020;2023-04-03T07:06:26;3.50;99.90
39067;DHT22;24821;51.988;6.020;2023-04-03T07:08:53;3.50;99.90
39067;DHT22;24821;51.988;6.020;2023-04-03T07:11:18;3.60;99.90
39067;DHT22;24821;51.988;6.020;2023-04-03T07:13:45;3.70;99.90
39067;DHT22;24821;51.988;6.020;2023-04-03T07:16:12;3.90;99.90
39067;DHT22;24821;51.988;6.020;2023-04-03T07:18:37;4.00;99.90
39067;DHT22;24821;51.988;6.020;2023-04-03T07:21:04;4.20;99.90
39067;DHT22;24821;51.988;6.020;2023-04-03T07:23:29;4.30;99.90
39067;DHT22;24821;51.988;6.020;2023-04-03T07:25:55;4.30;99.90
39067;DHT22;24821;51.988;6.020;2023-04-03T07:28:22;4.40;99.90
39067;DHT22;24821;51.988;6.020;2023-04-03T07:30:50;4.60;99.90
39067;DHT22;24821;51.988;6.020;2023-04-03T07:33:18;4.80;99.90
39067;DHT22;24821;51.988;6.020;2023-04-03T07:35:45;5.10;99.90
39067;DHT22;24821;51.988;6.020;2023-04-03T07:38:12;5.40;99.90
39067;DHT22;24821;51.988;6.020;2023-04-03T07:40:38;5.60;99.90
39067;DHT22;24821;51.988;6.020;2023-04-03T07:43:04;5.70;99.90
39067;DHT22;24821;51.988;6.020;2023-04-03T07:45:30;5.70;99.90
39067;DHT22;24821;51.988;6.020;2023-04-03T07:47:56;5.80;99.90
39067;DHT22;24821;51.988;6.020;2023-04-03T07:50:21;6.00;99.90
39067;DHT22;24821;51.988;6.020;2023-04-03T07:52:47;6.10;99.90
39067;DHT22;24821;51.988;6.020;2023-04-03T07:55:13;6.20;99.90
39067;DHT22;24821;51.988;6.020;2023-04-03T07:57:38;6.40;99.90
39067;DHT22;24821;51.988;6.020;2023-04-03T08:00:05;6.50;99.90
39067;DHT22;24821;51.988;6.020;2023-04-03T08:02:31;6.50;99.80
39067;DHT22;24821;51.988;6.020;2023-04-03T08:04:58;6.80;99.80
39067;DHT22;24821;51.988;6.020;2023-04-03T08:07:23;7.00;99.90
39067;DHT22;24821;51.988;6.020;2023-04-03T08:09:49;7.40;99.30
39067;DHT22;24821;51.988;6.020;2023-04-03T08:12:16;7.70;98.20
39067;DHT22;24821;51.988;6.020;2023-04-03T08:14:42;7.90;97.40
39067;DHT22;24821;51.988;6.020;2023-04-03T08:17:08;8.20;97.10
39067;DHT22;24821;51.988;6.020;2023-04-03T08:19:37;8.40;96.10
39067;DHT22;24821;51.988;6.020;2023-04-03T08:22:03;8.60;94.80
39067;DHT22;24821;51.988;6.020;2023-04-03T08:24:30;8.90;95.00
39067;DHT22;24821;51.988;6.020;2023-04-03T08:26:56;9.30;94.10
39067;DHT22;24821;51.988;6.020;2023-04-03T08:29:22;9.60;92.70
39067;DHT22;24821;51.988;6.020;2023-04-03T08:31:48;9.70;91.60
39067;DHT22;24821;51.988;6.020;2023-04-03T08:34:15;10.00;91.50
39067;DHT22;24821;51.988;6.020;2023-04-03T08:36:41;10.20;90.30
39067;DHT22;24821;51.988;6.020;2023-04-03T08:39:07;10.50;88.10
39067;DHT22;24821;51.988;6.020;2023-04-03T08:41:39;10.80;85.80
39067;DHT22;24821;51.988;6.020;2023-04-03T08:49:53;11.50;81.10
39067;DHT22;24821;51.988;6.020;2023-04-03T08:55:02;11.70;76.90
39067;DHT22;24821;51.988;6.020;2023-04-03T08:57:35;11.80;76.80
39067;DHT22;24821;51.988;6.020;2023-04-03T09:00:13;12.00;74.60
39067;DHT22;24821;51.988;6.020;2023-04-03T09:02:44;12.10;71.70
39067;DHT22;24821;51.988;6.020;2023-04-03T09:05:17;12.10;70.80
39067;DHT22;24821;51.988;6.020;2023-04-03T09:07:46;12.00;69.30
39067;DHT22;24821;51.988;6.020;2023-04-03T09:10:14;11.80;70.90
39067;DHT22;24821;51.988;6.020;2023-04-03T09:13:12;11.60;71.30
39067;DHT22;24821;51.988;6.020;2023-04-03T09:15:39;11.40;69.00
39067;DHT22;24821;51.988;6.020;2023-04-03T09:18:14;11.00;68.50
39067;DHT22;24821;51.988;6.020;2023-04-03T09:23:46;10.50;67.80
39067;DHT22;24821;51.988;6.020;2023-04-03T09:26:35;10.30;65.90
39067;DHT22;24821;51.988;6.020;2023-04-03T09:29:07;10.10;66.30
39067;DHT22;24821;51.988;6.020;2023-04-03T09:31:42;10.00;66.80
39067;DHT22;24821;51.988;6.020;2023-04-03T09:34:25;9.90;66.80
39067;DHT22;24821;51.988;6.020;2023-04-03T09:36:56;9.80;69.50
39067;DHT22;24821;51.988;6.020;2023-04-03T09:39:27;9.80;68.00
39067;DHT22;24821;51.988;6.020;2023-04-03T09:42:23;9.70;68.40
39067;DHT22;24821;51.988;6.020;2023-04-03T09:44:57;9.60;66.20
39067;DHT22;24821;51.988;6.020;2023-04-03T09:47:26;9.50;68.30
39067;DHT22;24821;51.988;6.020;2023-04-03T09:52:38;9.50;69.50
39067;DHT22;24821;51.988;6.020;2023-04-03T09:57:45;9.60;69.90
39067;DHT22;24821;51.988;6.020;2023-04-03T10:00:35;9.60;68.80
39067;DHT22;24821;51.988;6.020;2023-04-03T10:03:01;9.60;67.40
39067;DHT22;24821;51.988;6.020;2023-04-03T10:05:38;9.50;68.60
39067;DHT22;24821;51.988;6.020;2023-04-03T10:10:44;9.50;68.60
39067;DHT22;24821;51.988;6.020;2023-04-03T10:13:15;9.50;68.90
39067;DHT22;24821;51.988;6.020;2023-04-03T10:15:46;9.50;68.50
39067;DHT22;24821;51.988;6.020;2023-04-03T10:20:49;9.60;68.20
39067;DHT22;24821;51.988;6.020;2023-04-03T10:31:27;9.70;68.80
39067;DHT22;24821;51.988;6.020;2023-04-03T10:34:01;9.70;68.70
39067;DHT22;24821;51.988;6.020;2023-04-03T10:41:59;9.70;69.80
39067;DHT22;24821;51.988;6.020;2023-04-03T10:44:36;9.70;69.70
39067;DHT22;24821;51.988;6.020;2023-04-03T10:47:13;9.80;71.40
39067;DHT22;24821;51.988;6.020;2023-04-03T10:49:56;9.90;70.40
39067;DHT22;24821;51.988;6.020;2023-04-03T10:55:22;10.00;67.80
39067;DHT22;24821;51.988;6.020;2023-04-03T10:57:49;10.00;68.40
39067;DHT22;24821;51.988;6.020;2023-04-03T11:00:21;10.00;68.60
39067;DHT22;24821;51.988;6.020;2023-04-03T11:02:52;10.10;68.50
39067;DHT22;24821;51.988;6.020;2023-04-03T11:05:29;10.00;66.80
39067;DHT22;24821;51.988;6.020;2023-04-03T11:07:59;10.10;67.90
39067;DHT22;24821;51.988;6.020;2023-04-03T11:10:37;10.10;68.10
39067;DHT22;24821;51.988;6.020;2023-04-03T11:13:22;10.10;67.00
39067;DHT22;24821;51.988;6.020;2023-04-03T11:15:53;10.00;64.90
39067;DHT22;24821;51.988;6.020;2023-04-03T11:18:27;10.00;64.20
39067;DHT22;24821;51.988;6.020;2023-04-03T11:23:41;10.00;66.80
39067;DHT22;24821;51.988;6.020;2023-04-03T11:26:12;10.10;68.70
39067;DHT22;24821;51.988;6.020;2023-04-03T11:28:40;10.10;67.30
39067;DHT22;24821;51.988;6.020;2023-04-03T11:36:53;10.20;66.10
39067;DHT22;24821;51.988;6.020;2023-04-03T11:39:32;10.20;66.30
39067;DHT22;24821;51.988;6.020;2023-04-03T11:42:25;10.20;67.70
39067;DHT22;24821;51.988;6.020;2023-04-03T11:45:32;10.30;65.20
39067;DHT22;24821;51.988;6.020;2023-04-03T11:50:47;10.40;69.20
39067;DHT22;24821;51.988;6.020;2023-04-03T11:55:52;10.50;69.00
39067;DHT22;24821;51.988;6.020;2023-04-03T12:08:29;10.60;68.40
39067;DHT22;24821;51.988;6.020;2023-04-03T12:14:00;10.50;69.50
39067;DHT22;24821;51.988;6.020;2023-04-03T12:24:33;10.60;65.60
39067;DHT22;24821;51.988;6.020;2023-04-03T12:46:17;10.80;66.70
39067;DHT22;24821;51.988;6.020;2023-04-03T12:48:53;10.60;65.80
39067;DHT22;24821;51.988;6.020;2023-04-03T12:51:22;10.60;66.60
39067;DHT22;24821;51.988;6.020;2023-04-03T12:57:20;10.70;67.30
39067;DHT22;24821;51.988;6.020;2023-04-03T12:59:47;10.80;68.00
39067;DHT22;24821;51.988;6.020;2023-04-03T13:02:21;10.80;68.30
39067;DHT22;24821;51.988;6.020;2023-04-03T13:04:49;10.90;67.30
39067;DHT22;24821;51.988;6.020;2023-04-03T13:07:35;10.80;67.50
39067;DHT22;24821;51.988;6.020;2023-04-03T13:10:24;10.90;65.60
39067;DHT22;24821;51.988;6.020;2023-04-03T13:12:51;10.80;68.90
39067;DHT22;24821;51.988;6.020;2023-04-03T13:15:29;10.90;68.90
39067;DHT22;24821;51.988;6.020;2023-04-03T13:17:56;11.00;70.30
39067;DHT22;24821;51.988;6.020;2023-04-03T13:20:28;10.90;66.00
39067;DHT22;24821;51.988;6.020;2023-04-03T13:23:20;10.90;67.80
39067;DHT22;24821;51.988;6.020;2023-04-03T13:25:47;10.90;68.10
39067;DHT22;24821;51.988;6.020;2023-04-03T13:28:17;10.90;66.80
39067;DHT22;24821;51.988;6.020;2023-04-03T13:31:18;10.90;68.10
39067;DHT22;24821;51.988;6.020;2023-04-03T13:33:57;11.00;67.30
39067;DHT22;24821;51.988;6.020;2023-04-03T13:36:30;11.10;66.80
39067;DHT22;24821;51.988;6.020;2023-04-03T13:41:52;11.20;68.60
39067;DHT22;24821;51.988;6.020;2023-04-03T13:49:40;11.20;67.70
39067;DHT22;24821;51.988;6.020;2023-04-03T13:52:23;11.20;70.00
39067;DHT22;24821;51.988;6.020;2023-04-03T13:55:23;11.10;65.50
39067;DHT22;24821;51.988;6.020;2023-04-03T13:57:52;11.10;68.20
39067;DHT22;24821;51.988;6.020;2023-04-03T14:00:39;11.00;67.50
39067;DHT22;24821;51.988;6.020;2023-04-03T14:05:46;11.00;67.00
39067;DHT22;24821;51.988;6.020;2023-04-03T14:08:12;10.90;67.60
39067;DHT22;24821;51.988;6.020;2023-04-03T14:10:37;10.80;67.10
39067;DHT22;24821;51.988;6.020;2023-04-03T14:13:04;10.90;68.50
39067;DHT22;24821;51.988;6.020;2023-04-03T14:15:31;10.90;68.80
39067;DHT22;24821;51.988;6.020;2023-04-03T14:17:57;11.00;68.60
39067;DHT22;24821;51.988;6.020;2023-04-03T14:20:25;11.00;68.10
39067;DHT22;24821;51.988;6.020;2023-04-03T14:22:52;11.10;70.10
39067;DHT22;24821;51.988;6.020;2023-04-03T14:25:20;11.00;70.00
39067;DHT22;24821;51.988;6.020;2023-04-03T14:27:49;11.10;69.80
39067;DHT22;24821;51.988;6.020;2023-04-03T14:30:26;11.00;69.10
39067;DHT22;24821;51.988;6.020;2023-04-03T14:32:52;11.00;68.10
39067;DHT22;24821;51.988;6.020;2023-04-03T14:35:18;11.00;68.30
39067;DHT22;24821;51.988;6.020;2023-04-03T14:37:46;11.00;69.10
39067;DHT22;24821;51.988;6.020;2023-04-03T14:40:15;11.00;69.90
39067;DHT22;24821;51.988;6.020;2023-04-03T14:42:41;11.00;70.80
39067;DHT22;24821;51.988;6.020;2023-04-03T14:45:10;11.00;69.80
39067;DHT22;24821;51.988;6.020;2023-04-03T14:47:41;10.90;67.70
39067;DHT22;24821;51.988;6.020;2023-04-03T14:50:11;10.90;69.00
39067;DHT22;24821;51.988;6.020;2023-04-03T14:52:38;10.80;68.40
39067;DHT22;24821;51.988;6.020;2023-04-03T14:55:07;10.70;66.60
39067;DHT22;24821;51.988;6.020;2023-04-03T14:57:33;10.50;66.50
39067;DHT22;24821;51.988;6.020;2023-04-03T14:59:59;10.40;67.90
39067;DHT22;24821;51.988;6.020;2023-04-03T15:02:32;10.40;70.40
39067;DHT22;24821;51.988;6.020;2023-04-03T15:04:59;10.50;71.20
39067;DHT22;24821;51.988;6.020;2023-04-03T15:07:28;10.60;72.40
39067;DHT22;24821;51.988;6.020;2023-04-03T15:09:55;10.60;72.90
39067;DHT22;24821;51.988;6.020;2023-04-03T15:12:24;10.70;72.10
39067;DHT22;24821;51.988;6.020;2023-04-03T15:14:50;10.70;71.90
39067;DHT22;24821;51.988;6.020;2023-04-03T15:17:17;10.70;71.10
39067;DHT22;24821;51.988;6.020;2023-04-03T15:19:45;10.70;70.00
39067;DHT22;24821;51.988;6.020;2023-04-03T15:22:16;10.70;70.20
39067;DHT22;24821;51.988;6.020;2023-04-03T15:24:43;10.60;70.80
39067;DHT22;24821;51.988;6.020;2023-04-03T15:27:10;10.60;72.00
39067;DHT22;24821;51.988;6.020;2023-04-03T15:29:37;10.60;69.20
39067;DHT22;24821;51.988;6.020;2023-04-03T15:32:03;10.50;71.30
39067;DHT22;24821;51.988;6.020;2023-04-03T15:34:28;10.50;72.00
39067;DHT22;24821;51.988;6.020;2023-04-03T15:36:54;10.40;70.90
39067;DHT22;24821;51.988;6.020;2023-04-03T15:39:20;10.50;70.60
39067;DHT22;24821;51.988;6.020;2023-04-03T15:41:46;10.40;71.50
39067;DHT22;24821;51.988;6.020;2023-04-03T15:44:12;10.50;72.00
39067;DHT22;24821;51.988;6.020;2023-04-03T15:46:38;10.50;73.70
39067;DHT22;24821;51.988;6.020;2023-04-03T15:49:05;10.50;71.80
39067;DHT22;24821;51.988;6.020;2023-04-03T15:51:31;10.50;70.80
39067;DHT22;24821;51.988;6.020;2023-04-03T15:53:56;10.40;70.50
39067;DHT22;24821;51.988;6.020;2023-04-03T15:56:22;10.40;71.70
39067;DHT22;24821;51.988;6.020;2023-04-03T15:58:48;10.40;72.20
39067;DHT22;24821;51.988;6.020;2023-04-03T16:01:14;10.30;72.30
39067;DHT22;24821;51.988;6.020;2023-04-03T16:03:41;10.30;71.80
39067;DHT22;24821;51.988;6.020;2023-04-03T16:06:11;10.30;72.70
39067;DHT22;24821;51.988;6.020;2023-04-03T16:08:37;10.20;72.80
39067;DHT22;24821;51.988;6.020;2023-04-03T16:11:03;10.20;72.60
39067;DHT22;24821;51.988;6.020;2023-04-03T16:13:28;10.10;71.10
39067;DHT22;24821;51.988;6.020;2023-04-03T16:15:54;10.10;72.40
39067;DHT22;24821;51.988;6.020;2023-04-03T16:18:20;10.10;71.90
39067;DHT22;24821;51.988;6.020;2023-04-03T16:20:46;10.00;72.70
39067;DHT22;24821;51.988;6.020;2023-04-03T16:23:13;10.00;72.80
39067;DHT22;24821;51.988;6.020;2023-04-03T16:25:38;10.00;73.70
39067;DHT22;24821;51.988;6.020;2023-04-03T16:28:04;10.00;71.30
39067;DHT22;24821;51.988;6.020;2023-04-03T16:30:30;9.90;70.90
39067;DHT22;24821;51.988;6.020;2023-04-03T16:32:56;9.80;70.60
39067;DHT22;24821;51.988;6.020;2023-04-03T16:35:22;9.70;69.80
39067;DHT22;24821;51.988;6.020;2023-04-03T16:37:48;9.60;69.20
39067;DHT22;24821;51.988;6.020;2023-04-03T16:40:14;9.60;70.70
39067;DHT22;24821;51.988;6.020;2023-04-03T16:42:40;9.50;73.10
39067;DHT22;24821;51.988;6.020;2023-04-03T16:45:06;9.60;72.00
39067;DHT22;24821;51.988;6.020;2023-04-03T16:47:32;9.50;73.10
39067;DHT22;24821;51.988;6.020;2023-04-03T16:49:58;9.50;72.30
39067;DHT22;24821;51.988;6.020;2023-04-03T16:52:23;9.50;72.30
39067;DHT22;24821;51.988;6.020;2023-04-03T16:54:49;9.40;72.10
39067;DHT22;24821;51.988;6.020;2023-04-03T16:57:17;9.40;72.80
39067;DHT22;24821;51.988;6.020;2023-04-03T16:59:42;9.40;73.10
39067;DHT22;24821;51.988;6.020;2023-04-03T17:02:09;9.30;73.00
39067;DHT22;24821;51.988;6.020;2023-04-03T17:04:35;9.30;74.10
39067;DHT22;24821;51.988;6.020;2023-04-03T17:07:00;9.30;75.40
39067;DHT22;24821;51.988;6.020;2023-04-03T17:09:30;9.20;74.50
39067;DHT22;24821;51.988;6.020;2023-04-03T17:11:56;9.20;74.00
39067;DHT22;24821;51.988;6.020;2023-04-03T17:14:21;9.10;74.90
39067;DHT22;24821;51.988;6.020;2023-04-03T17:16:47;9.00;74.20
39067;DHT22;24821;51.988;6.020;2023-04-03T17:19:12;9.00;75.00
39067;DHT22;24821;51.988;6.020;2023-04-03T17:21:38;8.90;75.20
39067;DHT22;24821;51.988;6.020;2023-04-03T17:24:05;8.80;74.60
39067;DHT22;24821;51.988;6.020;2023-04-03T17:26:33;8.80;75.30
39067;DHT22;24821;51.988;6.020;2023-04-03T17:28:59;8.70;76.20
39067;DHT22;24821;51.988;6.020;2023-04-03T17:31:25;8.70;76.40
39067;DHT22;24821;51.988;6.020;2023-04-03T17:33:50;8.70;76.30
39067;DHT22;24821;51.988;6.020;2023-04-03T17:36:16;8.60;76.80
39067;DHT22;24821;51.988;6.020;2023-04-03T17:38:41;8.60;77.00
39067;DHT22;24821;51.988;6.020;2023-04-03T17:41:08;8.50;76.20
39067;DHT22;24821;51.988;6.020;2023-04-03T17:43:34;8.50;76.10